Time;durP1;ratioP1;P1;durP2;ratioP2;P2;SDS_P1;SDS_P2;PMS_P1;PMS_P2;Temp;Humidity;BMP_temperature;BMP_pressure;BME280_temperature;BME280_humidity;BME280_pressure;Samples;Min_cycle;Max_cycle;Signal;HPM_P1;HPM_P2
2022/01/01 00:00:06;;;;;;;19.05;11.48;;;;;;;6.29;88.81;98411.97;5047802;28;20257;-51
2022/01/01 00:02:38;;;;;;;15.70;10.27;;;;;;;6.43;87.80;98420.09;5034853;28;20068;-56
2022/01/01 00:05:06;;;;;;;15.90;9.35;;;;;;;6.54;87.80;98422.25;5027967;28;20052;-57
2022/01/01 00:07:34;;;;;;;15.90;8.23;;;;;;;6.62;87.47;98414.00;5027010;28;20095;-57
2022/01/01 00:10:03;;;;;;;15.02;8.38;;;;;;;6.67;87.26;98418.75;5026835;28;20045;-57
2022/01/01 00:12:29;;;;;;;12.25;7.85;;;;;;;6.73;87.01;98422.53;5027464;28;20049;-57
2022/01/01 00:14:56;;;;;;;13.77;7.45;;;;;;;6.68;87.32;98425.00;5027016;28;20103;-57
2022/01/01 00:17:22;;;;;;;14.63;8.20;;;;;;;6.61;87.77;98419.59;5032415;28;20055;-58
2022/01/01 00:19:49;;;;;;;16.63;8.70;;;;;;;6.61;87.67;98423.13;5047253;28;20049;-57
2022/01/01 00:22:16;;;;;;;15.85;8.50;;;;;;;6.69;88.29;98432.03;5046307;28;20044;-58
2022/01/01 00:24:42;;;;;;;12.90;8.15;;;;;;;6.74;88.89;98433.09;5042020;28;20052;-58
2022/01/01 00:27:09;;;;;;;13.23;7.80;;;;;;;6.75;88.66;98431.25;5026900;28;20045;-58
2022/01/01 00:29:36;;;;;;;12.35;6.90;;;;;;;6.75;88.85;98432.06;5026631;28;20053;-58
2022/01/01 00:32:03;;;;;;;12.48;7.20;;;;;;;6.78;88.16;98433.50;5027112;28;20049;-57
2022/01/01 00:34:35;;;;;;;10.70;6.15;;;;;;;6.81;88.82;98435.00;5026731;28;20037;-57
2022/01/01 00:37:03;;;;;;;13.88;7.45;;;;;;;6.88;87.71;98438.53;5026017;28;20128;-58
2022/01/01 00:39:30;;;;;;;12.80;7.43;;;;;;;6.84;87.85;98432.72;5026862;28;20044;-58
2022/01/01 00:41:57;;;;;;;13.27;7.22;;;;;;;6.83;88.07;98431.06;5026550;28;20048;-58
2022/01/01 00:44:24;;;;;;;13.60;8.07;;;;;;;6.80;88.08;98431.47;5026615;28;20504;-58
2022/01/01 00:46:51;;;;;;;12.60;7.88;;;;;;;6.76;87.52;98422.97;5006176;28;20100;-57
2022/01/01 00:49:18;;;;;;;13.45;7.90;;;;;;;6.83;87.84;98423.00;5006766;28;20045;-55
2022/01/01 00:51:44;;;;;;;12.82;7.90;;;;;;;6.81;87.70;98427.72;5022657;28;20780;-55
2022/01/01 00:54:11;;;;;;;14.48;8.00;;;;;;;6.90;87.32;98436.47;5026338;28;20038;-58
2022/01/01 00:56:38;;;;;;;15.73;7.78;;;;;;;6.88;87.88;98441.22;5032673;28;20037;-57
2022/01/01 00:59:04;;;;;;;14.77;8.02;;;;;;;6.93;87.63;98437.94;5039711;28;20038;-58
2022/01/01 01:01:32;;;;;;;13.93;7.97;;;;;;;6.84;87.84;98440.81;5026219;28;20052;-57
2022/01/01 01:03:58;;;;;;;18.38;8.90;;;;;;;6.80;88.18;98444.09;5026006;28;20034;-54
2022/01/01 01:06:25;;;;;;;16.65;9.10;;;;;;;6.87;87.87;98435.03;5025842;28;20053;-57
2022/01/01 01:08:53;;;;;;;17.35;9.82;;;;;;;6.73;88.79;98435.97;5025840;28;20042;-55
2022/01/01 01:11:20;;;;;;;21.83;9.52;;;;;;;6.81;88.60;98441.19;5026054;28;20111;-57
2022/01/01 01:13:55;;;;;;;17.20;10.05;;;;;;;6.96;88.14;98441.03;5025634;28;20045;-56
2022/01/01 01:16:22;;;;;;;19.02;10.98;;;;;;;6.90;87.89;98437.28;5026017;28;20053;-56
2022/01/01 01:18:50;;;;;;;20.17;12.10;;;;;;;6.93;88.53;98441.44;5025598;28;20049;-55
2022/01/01 01:21:16;;;;;;;17.73;11.48;;;;;;;7.00;87.60;98449.53;5026341;28;20045;-56
2022/01/01 01:23:43;;;;;;;19.45;11.23;;;;;;;6.89;88.32;98448.25;5026496;28;20045;-56
2022/01/01 01:26:09;;;;;;;16.45;9.98;;;;;;;6.80;88.82;98450.31;5024756;28;20114;-56
2022/01/01 01:28:38;;;;;;;20.40;10.00;;;;;;;6.75;88.98;98455.47;5026527;28;20042;-56
2022/01/01 01:31:04;;;;;;;17.85;10.35;;;;;;;6.72;89.14;98451.31;5025032;28;20103;-57
2022/01/01 01:33:31;;;;;;;15.98;9.50;;;;;;;6.70;89.17;98449.81;5026675;28;20036;-56
2022/01/01 01:35:58;;;;;;;15.77;9.70;;;;;;;6.54;89.27;98457.22;5025987;28;20057;-56
2022/01/01 01:38:25;;;;;;;15.00;8.63;;;;;;;6.46;90.20;98469.00;5023307;28;20099;-53
2022/01/01 01:40:51;;;;;;;16.27;9.70;;;;;;;6.55;89.81;98453.50;5022125;28;20719;-58
2022/01/01 01:43:21;;;;;;;17.45;11.23;;;;;;;6.41;90.24;98449.91;5024007;28;20080;-59
2022/01/01 01:45:48;;;;;;;19.70;11.18;;;;;;;6.27;91.05;98454.38;5024900;28;20049;-60
2022/01/01 01:48:15;;;;;;;18.02;10.32;;;;;;;6.35;90.97;98461.47;5018930;28;20053;-60
2022/01/01 01:50:42;;;;;;;21.00;11.70;;;;;;;6.47;90.86;98454.50;5027553;28;20038;-60
2022/01/01 01:53:09;;;;;;;20.55;11.43;;;;;;;6.40;90.98;98448.25;5029961;28;20512;-60
2022/01/01 01:55:36;;;;;;;22.48;12.52;;;;;;;6.34;91.27;98449.84;5029297;28;20042;-59
2022/01/01 01:58:03;;;;;;;19.52;11.48;;;;;;;6.46;91.07;98458.22;5043670;28;20589;-60
2022/01/01 02:02:56;;;;;;;22.02;13.77;;;;;;;6.62;90.54;98461.59;5034543;28;20053;-59
2022/01/01 02:05:23;;;;;;;25.88;14.65;;;;;;;6.68;90.01;98459.97;5023117;28;20044;-61
2022/01/01 02:07:51;;;;;;;24.48;14.10;;;;;;;6.64;90.32;98457.69;5020991;28;20048;-58
2022/01/01 02:10:18;;;;;;;20.63;13.27;;;;;;;6.92;89.24;98465.91;5014573;28;20057;-60
2022/01/01 02:12:51;;;;;;;22.92;13.88;;;;;;;6.82;89.24;98459.00;5017286;28;20076;-60
2022/01/01 02:18:20;;;;;;;23.55;13.25;;;;;;;6.82;89.32;98458.19;5049157;28;20040;-58
2022/01/01 02:20:51;;;;;;;28.70;15.18;;;;;;;6.74;90.10;98456.47;5028601;28;20045;-60
2022/01/01 02:23:22;;;;;;;23.90;14.32;;;;;;;6.72;90.19;98455.84;5037543;28;20048;-59
2022/01/01 02:25:50;;;;;;;25.75;14.30;;;;;;;6.68;90.21;98452.75;5049076;28;20045;-58
2022/01/01 02:28:17;;;;;;;22.35;13.77;;;;;;;6.86;90.05;98454.06;5048798;28;20049;-58
2022/01/01 02:30:43;;;;;;;24.10;13.60;;;;;;;6.85;89.56;98455.91;5034183;28;20045;-58
2022/01/01 02:33:10;;;;;;;25.67;14.02;;;;;;;6.85;89.21;98452.38;5029122;28;20052;-58
2022/01/01 02:35:37;;;;;;;20.23;13.38;;;;;;;6.80;89.52;98449.47;5029142;28;20413;-59
2022/01/01 02:38:03;;;;;;;19.38;12.57;;;;;;;6.98;88.79;98448.91;5028992;28;20239;-58
2022/01/01 02:40:30;;;;;;;28.00;14.38;;;;;;;6.90;88.91;98450.75;5027952;28;20060;-59
2022/01/01 02:42:56;;;;;;;24.42;13.63;;;;;;;6.77;89.87;98448.00;5029447;28;20045;-58
2022/01/01 02:45:23;;;;;;;25.17;14.23;;;;;;;6.81;89.90;98453.84;5027670;28;20044;-58
2022/01/01 02:47:50;;;;;;;21.98;13.27;;;;;;;6.85;89.61;98455.06;5028926;28;20079;-60
2022/01/01 02:50:19;;;;;;;23.50;14.70;;;;;;;6.83;89.53;98458.00;5028255;28;20052;-59
2022/01/01 02:52:47;;;;;;;23.80;13.05;;;;;;;6.75;89.99;98445.50;5028415;28;20049;-58
2022/01/01 02:55:14;;;;;;;20.95;12.80;;;;;;;6.71;90.71;98456.91;5027192;28;20111;-60
2022/01/01 02:57:40;;;;;;;20.80;12.20;;;;;;;6.71;90.56;98448.81;5028127;28;20055;-61
2022/01/01 03:00:09;;;;;;;21.38;11.55;;;;;;;6.79;90.41;98447.81;5027757;28;20053;-60
2022/01/01 03:02:35;;;;;;;18.58;11.85;;;;;;;6.86;89.75;98446.78;5028895;28;20046;-60
2022/01/01 03:05:02;;;;;;;17.48;10.95;;;;;;;6.89;89.61;98435.63;5028584;28;20041;-60
2022/01/01 03:07:29;;;;;;;20.23;11.35;;;;;;;6.88;89.56;98430.44;5028330;28;20501;-57
2022/01/01 03:09:56;;;;;;;19.80;10.55;;;;;;;7.02;89.16;98440.25;5028289;28;20737;-58
2022/01/01 03:12:22;;;;;;;16.00;9.70;;;;;;;7.10;88.82;98443.78;5028142;28;20060;-59
2022/01/01 03:14:49;;;;;;;15.38;9.52;;;;;;;7.15;89.52;98439.44;5027221;28;20052;-58
2022/01/01 03:17:15;;;;;;;20.95;11.15;;;;;;;6.95;89.50;98447.47;5027521;28;20049;-56
2022/01/01 03:19:42;;;;;;;19.10;11.05;;;;;;;6.85;90.28;98447.84;5028067;28;20057;-60
2022/01/01 03:22:09;;;;;;;18.63;10.18;;;;;;;6.90;90.33;98444.56;5027837;28;20520;-58
2022/01/01 03:24:35;;;;;;;19.42;9.63;;;;;;;7.03;89.79;98443.75;5028364;28;20041;-59
2022/01/01 03:27:02;;;;;;;17.33;9.85;;;;;;;7.10;89.34;98436.53;5027747;28;20655;-59
2022/01/01 03:29:31;;;;;;;14.95;8.77;;;;;;;7.18;89.13;98435.50;5027897;28;20048;-58
2022/01/01 03:31:58;;;;;;;17.55;8.48;;;;;;;7.23;88.65;98438.41;5028031;28;20068;-59
2022/01/01 03:34:25;;;;;;;13.77;9.15;;;;;;;7.30;88.34;98441.16;5027648;28;20046;-58
2022/01/01 03:36:53;;;;;;;15.15;8.57;;;;;;;7.39;87.77;98437.22;5027706;28;20053;-58
2022/01/01 03:39:22;;;;;;;13.40;7.82;;;;;;;7.42;87.61;98430.59;5027083;28;20053;-58
2022/01/01 03:41:49;;;;;;;14.70;7.57;;;;;;;7.40;87.64;98438.88;5027444;28;20046;-58
2022/01/01 03:44:16;;;;;;;15.07;8.60;;;;;;;7.44;87.39;98438.47;5027398;28;20163;-58
2022/01/01 03:46:43;;;;;;;16.80;9.65;;;;;;;7.47;86.63;98435.34;5027132;28;20045;-57
2022/01/01 03:49:10;;;;;;;13.43;8.00;;;;;;;7.44;86.36;98438.47;5027902;28;20042;-59
2022/01/01 03:51:36;;;;;;;12.43;7.40;;;;;;;7.53;85.60;98437.22;5025873;28;20042;-59
2022/01/01 03:54:03;;;;;;;13.23;7.60;;;;;;;7.60;84.84;98437.25;5027386;28;20501;-58
2022/01/01 03:56:30;;;;;;;13.13;7.35;;;;;;;7.53;84.78;98434.53;5020602;28;20044;-57
2022/01/01 03:58:56;;;;;;;13.40;7.68;;;;;;;7.50;84.87;98434.94;5027009;28;20041;-60
2022/01/01 04:01:23;;;;;;;13.35;7.90;;;;;;;7.55;84.41;98435.16;5026748;28;20405;-59
2022/01/01 04:03:50;;;;;;;12.05;7.53;;;;;;;7.56;84.55;98434.13;5026746;28;20040;-59
2022/01/01 04:06:16;;;;;;;14.80;7.10;;;;;;;7.51;84.63;98433.91;5027022;28;20037;-60
2022/01/01 04:08:43;;;;;;;12.25;7.50;;;;;;;7.48;84.81;98442.41;5027204;28;20049;-59
2022/01/01 04:11:10;;;;;;;11.98;7.05;;;;;;;7.30;85.26;98438.47;5026380;28;20055;-60
2022/01/01 04:13:36;;;;;;;12.75;7.45;;;;;;;7.23;85.76;98438.41;5026805;28;20033;-58
2022/01/01 04:16:03;;;;;;;11.45;7.00;;;;;;;7.25;85.56;98435.50;5031014;28;20048;-59
2022/01/01 04:18:39;;;;;;;12.85;7.38;;;;;;;7.26;85.33;98429.13;5035468;28;20069;-58
2022/01/01 04:21:08;;;;;;;12.27;7.03;;;;;;;7.13;85.65;98430.75;5026809;28;20052;-60
2022/01/01 04:23:36;;;;;;;12.32;6.70;;;;;;;7.12;85.61;98433.63;5031279;28;20049;-60
2022/01/01 04:26:03;;;;;;;11.88;6.72;;;;;;;6.99;85.93;98437.09;5046836;28;20051;-60
2022/01/01 04:28:29;;;;;;;9.82;5.75;;;;;;;6.95;85.87;98430.47;5046707;28;20045;-60
2022/01/01 04:30:56;;;;;;;11.85;6.80;;;;;;;6.89;85.81;98432.94;5046956;28;20052;-60
2022/01/01 04:33:23;;;;;;;11.30;5.35;;;;;;;6.97;85.51;98431.09;5029017;28;20042;-60
2022/01/01 04:35:49;;;;;;;9.82;5.32;;;;;;;6.99;85.30;98431.72;5025885;28;20604;-60
2022/01/01 04:38:39;;;;;;;10.00;6.30;;;;;;;7.03;84.56;98432.97;5025940;28;20056;-60
2022/01/01 04:41:05;;;;;;;8.88;5.18;;;;;;;7.05;84.33;98430.09;5024728;28;20037;-60
2022/01/01 04:43:32;;;;;;;10.07;4.88;;;;;;;6.99;84.12;98426.34;5026952;28;20056;-60
2022/01/01 04:45:59;;;;;;;11.10;5.88;;;;;;;6.89;84.39;98419.47;5026621;28;20056;-60
2022/01/01 04:48:25;;;;;;;10.68;5.25;;;;;;;6.76;84.66;98416.75;5026182;28;20128;-57
2022/01/01 04:50:52;;;;;;;10.65;6.28;;;;;;;6.54;85.54;98416.88;5025147;28;20057;-59
2022/01/01 04:53:19;;;;;;;11.02;6.32;;;;;;;5.99;86.77;98412.16;5024932;28;20052;-59
2022/01/01 04:55:47;;;;;;;10.52;6.00;;;;;;;5.60;88.01;98414.34;5026416;28;20053;-58
2022/01/01 04:58:14;;;;;;;10.75;6.07;;;;;;;5.38;89.17;98409.00;5041148;28;20167;-59
2022/01/01 05:00:40;;;;;;;11.88;6.82;;;;;;;5.53;89.36;98416.16;5025937;28;20041;-59
2022/01/01 05:03:08;;;;;;;12.60;5.97;;;;;;;5.63;89.00;98407.78;5026854;28;20120;-59
2022/01/01 05:05:34;;;;;;;14.25;6.60;;;;;;;5.47;88.62;98415.06;5025847;28;20041;-59
2022/01/01 05:08:01;;;;;;;11.75;6.30;;;;;;;5.23;89.50;98421.69;5026554;28;20056;-60
2022/01/01 05:10:28;;;;;;;11.82;6.68;;;;;;;5.23;90.45;98422.50;5026011;28;20042;-59
2022/01/01 05:12:54;;;;;;;11.00;5.00;;;;;;;5.51;90.03;98426.25;5025638;28;20061;-60
2022/01/01 05:15:21;;;;;;;10.40;5.22;;;;;;;5.89;88.22;98427.81;5025301;28;20045;-60
2022/01/01 05:17:47;;;;;;;9.02;5.25;;;;;;;5.80;86.79;98427.97;5024941;28;20045;-60
2022/01/01 05:20:14;;;;;;;8.65;5.28;;;;;;;5.72;87.57;98431.59;5024972;28;20059;-59
2022/01/01 05:22:41;;;;;;;8.00;4.63;;;;;;;5.75;87.43;98427.69;5005514;28;20037;-58
2022/01/01 05:25:08;;;;;;;10.63;5.57;;;;;;;5.78;86.66;98430.00;5005919;28;20042;-60
2022/01/01 05:27:36;;;;;;;10.13;5.88;;;;;;;5.55;87.29;98431.06;5005979;28;20042;-60
2022/01/01 05:30:07;;;;;;;10.43;5.40;;;;;;;5.17;88.42;98439.38;5007862;28;20092;-58
2022/01/01 05:32:34;;;;;;;13.18;6.05;;;;;;;4.95;88.97;98439.34;5026399;28;20048;-57
2022/01/01 05:35:01;;;;;;;10.77;5.55;;;;;;;4.68;89.51;98441.69;5024952;28;20049;-59
2022/01/01 05:37:27;;;;;;;11.38;5.30;;;;;;;4.23;89.38;98439.03;5025741;28;20045;-59
2022/01/01 05:39:54;;;;;;;10.82;6.07;;;;;;;4.25;91.92;98437.84;5026047;28;20038;-59
2022/01/01 05:42:20;;;;;;;12.45;6.70;;;;;;;4.12;91.42;98443.00;5025255;28;20056;-59
2022/01/01 05:44:47;;;;;;;13.32;7.13;;;;;;;4.16;92.10;98431.75;5025539;28;20048;-59
2022/01/01 05:47:14;;;;;;;12.40;6.88;;;;;;;4.29;91.90;98438.31;5025310;28;20071;-58
2022/01/01 05:49:40;;;;;;;14.27;6.88;;;;;;;4.24;91.52;98444.22;5022451;28;20049;-58
2022/01/01 05:52:08;;;;;;;13.77;7.00;;;;;;;4.29;91.83;98441.84;5024770;28;20048;-59
2022/01/01 05:54:35;;;;;;;12.68;6.80;;;;;;;4.38;91.45;98445.25;5025103;28;20400;-58
2022/01/01 05:57:02;;;;;;;13.52;6.22;;;;;;;4.46;91.69;98446.16;5026015;28;20042;-60
2022/01/01 05:59:29;;;;;;;11.95;6.35;;;;;;;4.36;91.10;98449.13;5024987;28;20048;-60
2022/01/01 06:01:55;;;;;;;15.43;6.57;;;;;;;4.37;91.33;98457.00;5019100;28;20037;-59
2022/01/01 06:04:22;;;;;;;12.82;6.85;;;;;;;4.45;91.40;98461.41;5024176;28;20049;-61
2022/01/01 06:06:49;;;;;;;13.98;7.57;;;;;;;4.64;91.02;98467.25;5025107;28;20052;-60
2022/01/01 06:09:16;;;;;;;13.32;7.18;;;;;;;4.83;90.43;98465.81;5025061;28;20048;-60
2022/01/01 06:11:43;;;;;;;13.77;7.63;;;;;;;5.00;89.89;98470.97;5023709;28;20095;-57
2022/01/01 06:14:09;;;;;;;11.10;6.18;;;;;;;5.08;89.70;98477.06;5025388;28;20569;-57
2022/01/01 06:16:36;;;;;;;13.02;6.43;;;;;;;5.18;89.33;98467.88;5025506;28;20050;-59
2022/01/01 06:19:02;;;;;;;15.65;8.02;;;;;;;5.30;89.00;98474.41;5030750;28;20397;-60
2022/01/01 06:21:29;;;;;;;12.25;6.60;;;;;;;5.39;88.79;98477.00;5045695;28;20562;-56
2022/01/01 06:23:55;;;;;;;11.90;5.75;;;;;;;5.50;88.40;98473.81;5045315;28;20056;-57
2022/01/01 06:26:22;;;;;;;10.73;5.10;;;;;;;5.62;88.01;98475.94;5044943;28;20041;-57
2022/01/01 06:28:48;;;;;;;11.30;6.13;;;;;;;5.68;87.57;98472.50;5035843;28;20045;-57
2022/01/01 06:31:15;;;;;;;10.00;5.10;;;;;;;5.68;87.50;98464.44;5025416;28;20049;-58
2022/01/01 06:33:42;;;;;;;10.30;5.70;;;;;;;5.57;87.63;98472.00;5024473;28;20121;-58
2022/01/01 06:36:12;;;;;;;8.77;5.43;;;;;;;5.62;87.48;98470.59;5027262;28;20037;-59
2022/01/01 06:38:42;;;;;;;8.30;4.53;;;;;;;5.62;87.42;98471.44;5028962;28;20107;-59
2022/01/01 06:41:10;;;;;;;11.65;4.90;;;;;;;5.71;86.74;98467.56;5028249;28;20061;-58
2022/01/01 06:43:38;;;;;;;8.25;4.32;;;;;;;5.72;86.33;98471.09;5029625;28;20060;-59
2022/01/01 06:46:06;;;;;;;10.45;4.95;;;;;;;5.72;86.76;98473.78;5030153;28;20037;-59
2022/01/01 06:48:34;;;;;;;8.95;4.38;;;;;;;5.72;86.02;98474.59;5028652;28;20037;-60
2022/01/01 06:51:01;;;;;;;8.18;4.35;;;;;;;5.44;86.57;98475.41;5027827;28;20041;-60
2022/01/01 06:53:28;;;;;;;8.95;5.10;;;;;;;5.34;86.90;98472.16;5028930;28;20056;-59
2022/01/01 06:55:54;;;;;;;9.75;4.82;;;;;;;5.18;87.52;98475.94;5028270;28;20037;-59
2022/01/01 06:58:21;;;;;;;9.23;5.13;;;;;;;4.98;88.45;98460.44;5047365;28;20049;-59
2022/01/01 07:00:47;;;;;;;9.73;4.65;;;;;;;4.87;89.07;98460.94;5028433;28;20037;-59
2022/01/01 07:03:20;;;;;;;7.72;4.25;;;;;;;4.85;89.13;98466.47;5028782;28;20125;-57
2022/01/01 07:05:47;;;;;;;15.52;4.70;;;;;;;4.85;89.29;98471.84;5027855;28;20256;-58
2022/01/01 07:08:13;;;;;;;9.23;4.22;;;;;;;4.68;89.05;98465.84;5028202;28;20052;-58
2022/01/01 07:10:44;;;;;;;8.82;4.22;;;;;;;4.54;88.91;98476.41;5028452;28;20412;-58
2022/01/01 07:13:12;;;;;;;8.82;4.75;;;;;;;4.38;89.88;98480.09;5028436;28;20048;-59
2022/01/01 07:15:39;;;;;;;8.63;4.78;;;;;;;4.32;90.50;98482.69;5027723;28;20049;-59
2022/01/01 07:18:06;;;;;;;9.18;4.72;;;;;;;4.21;90.72;98481.28;5024708;28;20045;-59
2022/01/01 07:20:33;;;;;;;8.57;4.55;;;;;;;4.21;91.96;98484.81;5035431;28;20038;-57
2022/01/01 07:22:59;;;;;;;8.95;4.57;;;;;;;4.11;91.05;98481.56;5024739;28;20044;-56
2022/01/01 07:25:26;;;;;;;7.68;4.63;;;;;;;4.22;92.42;98488.31;5025887;28;20042;-59
2022/01/01 07:27:52;;;;;;;10.98;5.72;;;;;;;4.20;92.58;98480.44;5026384;28;20056;-59
2022/01/01 07:30:19;;;;;;;11.20;5.65;;;;;;;4.15;91.80;98480.19;5026402;28;20049;-59
2022/01/01 07:32:48;;;;;;;9.85;5.18;;;;;;;4.11;91.69;98481.56;5025601;28;20684;-59
2022/01/01 07:35:17;;;;;;;8.88;4.43;;;;;;;4.08;91.58;98481.91;5022043;28;20527;-59
2022/01/01 07:37:44;;;;;;;9.52;5.10;;;;;;;4.14;91.92;98489.25;5025674;28;20509;-60
2022/01/01 07:40:12;;;;;;;12.10;6.05;;;;;;;4.00;90.56;98489.03;5035328;28;20044;-60
2022/01/01 07:42:40;;;;;;;7.55;4.43;;;;;;;4.11;91.11;98484.22;5030032;28;20049;-60
2022/01/01 07:45:08;;;;;;;8.20;4.35;;;;;;;4.14;91.12;98491.91;5025420;28;20045;-60
2022/01/01 07:47:35;;;;;;;9.13;5.03;;;;;;;4.25;92.53;98491.47;5025705;28;20424;-60
2022/01/01 07:50:03;;;;;;;9.50;4.82;;;;;;;4.03;90.55;98477.94;5025418;28;20061;-60
2022/01/01 07:52:30;;;;;;;8.35;4.55;;;;;;;3.95;90.81;98483.41;5025321;28;20041;-59
2022/01/01 07:54:56;;;;;;;8.95;4.57;;;;;;;3.97;91.83;98486.72;5019871;28;20042;-52
2022/01/01 07:57:26;;;;;;;9.00;4.53;;;;;;;4.06;92.17;98486.63;5020536;28;20068;-54
2022/01/01 07:59:52;;;;;;;10.10;5.18;;;;;;;4.10;92.14;98475.38;5025571;28;20041;-56
2022/01/01 08:02:19;;;;;;;10.45;5.20;;;;;;;4.07;91.61;98473.06;5025696;28;20451;-55
2022/01/01 08:04:45;;;;;;;8.25;4.93;;;;;;;4.06;90.87;98478.59;5025568;28;20049;-52
2022/01/01 08:07:12;;;;;;;9.70;5.32;;;;;;;4.10;91.63;98475.38;5025332;28;20056;-52
2022/01/01 08:09:59;;;;;;;8.88;5.35;;;;;;;4.28;91.05;98477.69;5025148;28;20041;-56
2022/01/01 08:12:25;;;;;;;8.18;5.00;;;;;;;4.18;90.65;98474.44;5024803;28;20050;-50
2022/01/01 08:14:56;;;;;;;10.48;4.93;;;;;;;4.29;91.07;98479.38;5026107;28;20103;-54
2022/01/01 08:17:24;;;;;;;9.00;4.78;;;;;;;4.35;90.90;98485.00;5025356;28;20607;-51
2022/01/01 08:19:51;;;;;;;10.98;5.18;;;;;;;4.47;90.53;98480.84;5038204;28;20045;-51
2022/01/01 08:22:18;;;;;;;9.27;5.10;;;;;;;4.54;89.83;98483.63;5030008;28;20045;-51
2022/01/01 08:24:46;;;;;;;10.68;5.13;;;;;;;4.62;89.65;98480.84;5024639;28;20117;-53
2022/01/01 08:27:12;;;;;;;9.48;5.30;;;;;;;4.66;89.85;98478.63;5035443;28;20055;-52
2022/01/01 08:29:39;;;;;;;8.93;5.72;;;;;;;4.83;89.47;98487.28;5024827;28;20045;-54
2022/01/01 08:32:06;;;;;;;10.63;5.60;;;;;;;4.79;89.36;98489.53;5024813;28;20050;-59
2022/01/01 08:34:33;;;;;;;8.77;5.28;;;;;;;4.75;89.74;98490.91;5025023;28;20041;-58
2022/01/01 08:36:59;;;;;;;9.90;5.82;;;;;;;4.85;89.76;98492.47;5024400;28;20041;-58
2022/01/01 08:39:26;;;;;;;11.27;6.13;;;;;;;4.91;89.75;98497.09;5024665;28;20576;-59
2022/01/01 08:41:53;;;;;;;11.65;5.70;;;;;;;4.97;89.82;98490.97;5025325;28;20185;-58
2022/01/01 08:44:19;;;;;;;14.23;6.50;;;;;;;5.01;89.79;98489.59;5041546;28;20242;-60
2022/01/01 08:46:47;;;;;;;9.77;5.80;;;;;;;5.16;89.70;98499.47;5023234;28;20272;-60
2022/01/01 08:49:14;;;;;;;9.73;5.68;;;;;;;5.30;89.61;98506.66;5024156;28;20161;-60
2022/01/01 08:51:45;;;;;;;10.13;5.10;;;;;;;5.48;89.15;98505.38;5040273;28;20646;-60
2022/01/01 08:54:15;;;;;;;10.88;5.32;;;;;;;5.72;88.64;98508.72;5028712;28;20060;-60
2022/01/01 08:56:42;;;;;;;8.38;5.25;;;;;;;6.02;87.38;98497.81;5036590;28;20041;-58
2022/01/01 08:59:09;;;;;;;8.73;4.57;;;;;;;6.27;86.71;98499.28;5040785;28;20510;-60
2022/01/01 09:01:36;;;;;;;13.02;4.90;;;;;;;6.37;86.08;98499.75;5024648;28;20049;-59
2022/01/01 09:04:05;;;;;;;8.63;5.30;;;;;;;6.51;86.06;98506.06;5037959;28;20045;-59
2022/01/01 09:06:32;;;;;;;8.30;5.05;;;;;;;6.73;85.64;98500.56;5030773;28;20052;-58
2022/01/01 09:08:59;;;;;;;7.88;4.85;;;;;;;6.89;85.16;98494.03;5030752;28;20670;-58
2022/01/01 09:11:26;;;;;;;6.47;3.80;;;;;;;7.05;85.48;98492.88;5033530;28;20053;-58
2022/01/01 09:13:52;;;;;;;7.07;3.90;;;;;;;7.19;85.10;98493.72;5041971;28;20049;-58
2022/01/01 09:16:22;;;;;;;6.75;3.70;;;;;;;7.31;84.88;98498.53;5033813;28;20046;-60
2022/01/01 09:18:49;;;;;;;7.80;4.40;;;;;;;7.32;84.39;98501.03;5041316;28;20073;-60
2022/01/01 09:21:17;;;;;;;7.22;3.85;;;;;;;7.48;84.23;98504.41;5016499;28;20506;-60
2022/01/01 09:23:44;;;;;;;6.03;3.35;;;;;;;7.57;84.05;98511.25;5012101;28;20041;-60
2022/01/01 09:26:10;;;;;;;6.75;4.25;;;;;;;7.75;83.76;98513.38;5017063;28;20046;-60
2022/01/01 09:28:37;;;;;;;7.55;3.58;;;;;;;7.76;83.57;98514.19;5027741;28;20049;-60
2022/01/01 09:31:04;;;;;;;8.80;3.65;;;;;;;7.83;82.79;98515.03;5031540;28;20044;-60
2022/01/01 09:33:31;;;;;;;5.93;3.13;;;;;;;7.83;82.94;98520.41;5042306;28;20064;-60
2022/01/01 09:35:59;;;;;;;6.97;3.10;;;;;;;7.86;82.95;98520.03;5028113;28;20497;-60
2022/01/01 09:38:27;;;;;;;5.63;2.90;;;;;;;7.93;83.01;98523.53;5024889;28;20416;-59
2022/01/01 09:40:55;;;;;;;5.30;3.00;;;;;;;8.01;82.57;98521.69;5033247;28;20049;-57
2022/01/01 09:43:23;;;;;;;6.72;3.22;;;;;;;8.11;82.38;98515.88;5031626;28;20505;-59
2022/01/01 09:45:51;;;;;;;6.95;3.15;;;;;;;8.14;81.98;98518.97;5023469;28;20048;-58
2022/01/01 09:48:20;;;;;;;7.28;2.85;;;;;;;8.20;82.17;98520.88;5025723;28;20476;-58
2022/01/01 09:50:56;;;;;;;5.75;3.10;;;;;;;8.24;81.61;98515.03;5037675;28;20049;-59
2022/01/01 09:53:24;;;;;;;7.75;3.72;;;;;;;8.35;82.06;98513.56;5038671;28;20045;-59
2022/01/01 09:55:52;;;;;;;7.00;3.53;;;;;;;8.35;81.83;98514.41;5023717;28;20049;-59
2022/01/01 09:58:27;;;;;;;7.03;3.50;;;;;;;8.50;81.24;98510.63;5013642;28;20056;-59
2022/01/01 10:00:54;;;;;;;8.88;3.80;;;;;;;8.58;81.20;98511.28;5027848;28;20051;-60
2022/01/01 10:03:28;;;;;;;7.30;3.25;;;;;;;8.72;81.14;98513.94;5025366;28;20049;-60
2022/01/01 10:06:05;;;;;;;7.13;2.80;;;;;;;8.91;80.42;98503.28;5023361;28;20483;-60
2022/01/01 10:08:34;;;;;;;6.35;2.90;;;;;;;9.03;80.52;98507.00;5023422;28;20053;-60
2022/01/01 10:11:01;;;;;;;5.68;2.40;;;;;;;9.22;80.31;98499.03;5029262;28;20049;-59
2022/01/01 10:13:32;;;;;;;4.78;2.60;;;;;;;9.40;79.19;98495.59;5028624;28;20684;-63
2022/01/01 10:16:03;;;;;;;4.05;2.08;;;;;;;9.50;79.18;98493.25;5034674;28;20034;-60
2022/01/01 10:18:35;;;;;;;5.18;2.10;;;;;;;9.61;78.43;98485.50;5031707;28;20060;-60
2022/01/01 10:21:08;;;;;;;5.20;2.58;;;;;;;9.74;77.99;98487.28;5020340;28;20791;-59
2022/01/01 10:23:37;;;;;;;5.28;2.40;;;;;;;9.86;77.72;98490.94;5040526;28;20563;-58
2022/01/01 10:29:15;;;;;;;6.30;2.55;;;;;;;10.09;76.48;98492.22;5026089;28;20056;-56
2022/01/01 10:32:09;;;;;;;5.50;2.13;;;;;;;10.20;76.32;98482.53;5027419;28;20525;-58
2022/01/01 10:34:42;;;;;;;4.32;1.95;;;;;;;10.23;76.56;98487.53;5027089;28;20052;-60
2022/01/01 10:37:29;;;;;;;5.38;1.92;;;;;;;10.38;76.07;98483.63;5026896;28;20076;-58
2022/01/01 10:39:57;;;;;;;4.32;1.95;;;;;;;10.46;75.90;98477.16;5027407;28;20057;-59
2022/01/01 10:42:23;;;;;;;5.45;2.30;;;;;;;10.53;75.36;98473.31;5026985;28;20061;-58
2022/01/01 10:44:52;;;;;;;4.32;2.20;;;;;;;10.61;75.92;98474.06;5025609;28;20517;-60
2022/01/01 10:47:31;;;;;;;4.15;1.98;;;;;;;10.78;74.86;98472.41;5025091;28;20053;-59
2022/01/01 10:52:34;;;;;;;4.10;1.90;;;;;;;10.91;74.48;98457.88;5040937;28;20045;-62
2022/01/01 10:55:07;;;;;;;3.65;1.50;;;;;;;10.90;74.49;98453.50;5037938;28;20445;-60
2022/01/01 10:57:39;;;;;;;3.10;1.50;;;;;;;10.89;75.04;98451.88;5039632;28;20041;-60
2022/01/01 11:00:18;;;;;;;3.00;1.45;;;;;;;11.01;74.82;98449.22;5035690;28;20042;-61
2022/01/01 11:02:49;;;;;;;3.65;1.40;;;;;;;11.05;75.45;98442.28;5029541;28;20417;-60
2022/01/01 11:05:16;;;;;;;3.15;1.33;;;;;;;11.25;73.03;98443.06;5039640;28;20552;-62
2022/01/01 11:07:51;;;;;;;4.68;1.40;;;;;;;11.39;72.95;98452.66;5013023;28;20049;-61
2022/01/01 11:10:19;;;;;;;2.45;1.00;;;;;;;11.52;73.43;98435.38;5040477;28;20459;-60
2022/01/01 11:12:46;;;;;;;2.78;1.15;;;;;;;11.62;71.76;98440.25;5043036;28;20075;-60
2022/01/01 11:15:13;;;;;;;2.05;1.00;;;;;;;11.72;72.52;98439.66;5026329;28;20041;-58
2022/01/01 11:17:41;;;;;;;2.70;1.30;;;;;;;11.80;71.21;98433.88;5034770;28;20064;-59
2022/01/01 11:20:09;;;;;;;4.22;1.17;;;;;;;11.67;71.13;98432.22;5046176;28;20053;-59
2022/01/01 11:22:45;;;;;;;2.42;1.20;;;;;;;11.66;71.03;98435.16;5045705;28;20064;-60
2022/01/01 11:25:11;;;;;;;2.67;0.90;;;;;;;11.71;70.90;98421.72;5032818;28;20041;-55
2022/01/01 11:27:38;;;;;;;2.28;1.00;;;;;;;11.81;70.68;98432.00;5045868;28;20056;-58
2022/01/01 11:30:07;;;;;;;9.77;1.30;;;;;;;11.85;71.93;98422.34;5032688;28;20044;-56
2022/01/01 11:32:37;;;;;;;3.25;1.10;;;;;;;11.90;69.58;98419.75;5045192;28;20123;-59
2022/01/01 11:35:20;;;;;;;2.60;1.20;;;;;;;12.01;69.94;98417.28;5040563;28;20068;-57
2022/01/01 11:37:58;;;;;;;4.78;1.40;;;;;;;12.13;69.64;98428.16;5037002;28;20045;-60
2022/01/01 11:40:26;;;;;;;2.08;0.90;;;;;;;12.19;69.32;98416.34;5034722;28;20049;-60
2022/01/01 11:42:53;;;;;;;4.35;1.13;;;;;;;12.28;69.80;98408.69;5032547;28;20053;-57
2022/01/01 11:45:44;;;;;;;4.50;2.30;;;;;;;12.35;70.12;98404.78;5045437;28;20053;-60
2022/01/01 11:48:26;;;;;;;4.38;1.10;;;;;;;12.35;68.34;98404.78;5039352;28;20053;-56